Etusivu
METAR-TAF:

METAR-TAF

Lentoasemat :

Tšita, Venäjä

Leveyspiiri: 52-05N, Pituuspiiri: 113-29E, korkeus merenpinnasta: 685 m

Tämänhetkinen sää

Tämä raportti tehtiin 21 minuuttia sitten, kello 18.00 UTC
Tuuli 2 kn luoteesta
Lämpötila -21°C
Kosteus 77%
Ilmanpaine 1009 hPa
Näkyvyys 10 km tai enemmän

METAR: UIAA 131800Z AUTO 31001MPS 9999 NCD M21/M24 Q1009 RMK QFE699/0932

Aika: 03:21 (18:21 UTC)

Sääennuste

Tämä raportti tehtiin 1 tunti ja 21 minuuttia sitten, kello 17.00 UTC
Ennuste voimassa 13. päivästä klo 18 UTC - 14. päivään klo 18 UTC
Tuuli 6 kn lännestä/luoteesta
Näkyvyys 10 km tai enemmän

TAF: UIAA 131700Z 1318/1418 30003MPS 9999 NSC

Säähavainnot ja -ennusteet yli 4000 lentoasemalta (METAR- ja TAF-raportit).

Käytössä olevat sääasemat on merkitty karttaan keltaisilla ja punaisilla pisteillä.

Aseta hiiri pisteen päälle nähdäksesi sääaseman nimen.

Klikkaa sitten nähdäksesi säähavainnot ja -ennusteet.

Kartan vaihtaminen: klikkaa mustalla rastilla varustettuja vihreitä pisteitä, niin voit zoomata sisään; viivalla varustettua vihreää pistettä, niin voit zoomata ulos tai vihreitä nuolia, niin pääset viereisille kartoille.


METAR-TAF: